KAFP

Anson County - Jeff Cloud Field Airport

Wadesboro, North Carolina, USA
METAR KAFP 191120Z AUTO 00000KT 10SM CLR M01/M02 A3017 RMK AO2 T10101021
Observed Flight Rules
Dec-19 @ 11:20 UTC (18 minutes ago) Visual Flight Rules
Visibility Clouds
10 miles
  • Clear skies
Temperatures Readings
Current -1°C / 30°F
Dewpoint -2°C / 28°F
Humidity 93%
Altimeter 30.17" Hg
Pressure 1022 hPa
Elevation 92
METAR KAFP 191120Z AUTO 00000KT 10SM CLR M01/M02 A3017 RMK AO2 T10101021
Observed Flight Rules
Dec-19 @ 11:20 UTC
(18 minutes ago)
VFR
Clouds
  • Clear skies
Temperature Dewpoint
-1°C / 30°F -2°C / 28°F
Humidity Altimeter Pressure
93% 30.17" Hg 1022 hPa